Time;durP1;ratioP1;P1;durP2;ratioP2;P2;SDS_P1;SDS_P2;PMS_P1;PMS_P2;Temp;Humidity;BMP_temperature;BMP_pressure;BME280_temperature;BME280_humidity;BME280_pressure;Samples;Min_cycle;Max_cycle;Signal;HPM_P1;HPM_P2
2021/10/02 00:33:54;;;;;;;5.40;2.77;;;14.90;99.90;;;;;;4960089;28;20836;-90
2021/10/02 00:47:02;;;;;;;2.83;2.07;;;15.30;99.90;;;;;;4972482;28;20458;-88
2021/10/02 00:49:29;;;;;;;2.93;2.50;;;15.30;99.90;;;;;;4963621;28;20997;-84
2021/10/02 00:51:56;;;;;;;3.10;1.93;;;15.20;99.90;;;;;;4935441;28;20469;-86
2021/10/02 00:54:23;;;;;;;3.13;2.00;;;15.20;99.90;;;;;;4936633;28;20459;-87
2021/10/02 00:56:50;;;;;;;4.47;2.10;;;15.20;99.90;;;;;;4953973;28;21803;-87
2021/10/02 00:59:18;;;;;;;2.20;1.80;;;15.30;99.90;;;;;;4933771;28;20585;-85
2021/10/02 01:01:52;;;;;;;6.43;2.27;;;15.30;99.90;;;;;;4937723;28;21999;-88
2021/10/02 01:04:36;;;;;;;6.03;2.37;;;15.30;99.90;;;;;;4951896;28;20481;-86
2021/10/02 01:07:42;;;;;;;2.60;2.10;;;15.30;99.90;;;;;;4956249;28;20450;-87
2021/10/02 01:10:32;;;;;;;2.80;1.50;;;15.30;99.90;;;;;;4951753;28;20996;-88
2021/10/02 01:13:37;;;;;;;3.03;1.97;;;15.40;99.90;;;;;;4937901;28;20539;-87
2021/10/02 01:16:15;;;;;;;2.10;1.90;;;15.40;99.90;;;;;;4952003;28;20814;-88
2021/10/02 01:18:51;;;;;;;2.83;2.30;;;15.50;99.90;;;;;;4932016;28;20455;-87
2021/10/02 01:21:47;;;;;;;3.10;1.97;;;15.50;99.90;;;;;;4934829;28;20469;-88
2021/10/02 01:24:36;;;;;;;2.27;1.80;;;15.50;99.90;;;;;;4929735;28;20446;-87
2021/10/02 01:27:44;;;;;;;2.23;1.73;;;15.30;99.90;;;;;;4936187;28;20967;-87
2021/10/02 01:30:18;;;;;;;3.60;1.70;;;15.40;99.90;;;;;;4937373;28;21369;-88
2021/10/02 01:33:02;;;;;;;3.00;2.20;;;15.50;99.90;;;;;;4955024;28;20957;-87
2021/10/02 01:48:52;;;;;;;3.33;2.17;;;15.70;99.90;;;;;;4959723;28;20550;-86
2021/10/02 01:51:20;;;;;;;5.43;3.17;;;15.70;99.90;;;;;;4934976;28;20479;-86
2021/10/02 01:53:48;;;;;;;4.10;2.17;;;15.60;99.90;;;;;;4955555;28;20454;-87
2021/10/02 01:56:18;;;;;;;2.40;2.20;;;15.60;99.90;;;;;;4951765;28;20455;-87
2021/10/02 01:58:45;;;;;;;3.50;2.20;;;15.40;99.90;;;;;;4940629;28;20455;-86
2021/10/02 02:01:13;;;;;;;3.73;2.30;;;15.40;99.90;;;;;;4946242;28;21023;-87
2021/10/02 02:03:44;;;;;;;5.33;2.33;;;15.40;99.90;;;;;;4938107;28;20807;-89
2021/10/02 02:06:11;;;;;;;2.30;2.10;;;15.40;99.90;;;;;;4957617;28;20469;-85
2021/10/02 02:08:42;;;;;;;3.17;2.17;;;15.40;99.90;;;;;;4955434;28;20466;-88
2021/10/02 02:11:25;;;;;;;2.17;2.00;;;15.40;99.90;;;;;;4942792;28;20495;-86
2021/10/02 02:13:54;;;;;;;2.40;2.20;;;15.60;99.90;;;;;;4940011;28;20454;-86
2021/10/02 02:16:24;;;;;;;3.63;2.50;;;15.60;99.90;;;;;;4943817;28;20539;-86
2021/10/02 02:18:52;;;;;;;4.13;3.10;;;15.60;99.90;;;;;;4945012;28;20491;-88
2021/10/02 02:21:20;;;;;;;4.90;2.77;;;15.60;99.90;;;;;;4952692;28;20450;-87
2021/10/02 02:23:48;;;;;;;4.03;2.40;;;15.60;99.90;;;;;;4935256;28;20463;-86
2021/10/02 02:26:15;;;;;;;2.53;2.20;;;15.60;99.90;;;;;;4942704;28;20443;-86
2021/10/02 02:28:45;;;;;;;3.37;2.30;;;15.40;99.90;;;;;;4932697;28;20944;-87
2021/10/02 02:31:14;;;;;;;3.00;1.80;;;15.60;99.90;;;;;;4939222;28;20578;-85
2021/10/02 02:33:42;;;;;;;3.50;1.90;;;15.60;99.90;;;;;;4951651;28;20466;-84
2021/10/02 02:36:09;;;;;;;3.70;1.77;;;15.50;99.90;;;;;;4935587;28;20469;-87
2021/10/02 02:38:36;;;;;;;4.43;2.33;;;15.60;99.90;;;;;;4950670;28;21843;-86
2021/10/02 02:41:04;;;;;;;2.83;1.80;;;15.50;99.90;;;;;;4954110;28;20525;-87
2021/10/02 02:43:35;;;;;;;2.20;1.77;;;15.50;99.90;;;;;;4951224;28;20467;-86
2021/10/02 02:46:10;;;;;;;2.40;1.63;;;15.60;99.90;;;;;;4935248;28;20471;-87
2021/10/02 02:48:45;;;;;;;2.07;1.93;;;15.50;99.90;;;;;;4953918;28;20467;-85
2021/10/02 02:51:21;;;;;;;2.40;2.10;;;15.60;99.90;;;;;;4933973;28;20860;-86
2021/10/02 02:53:52;;;;;;;2.57;2.20;;;15.70;99.90;;;;;;4954500;28;20447;-87
2021/10/02 02:56:29;;;;;;;2.20;1.83;;;15.50;99.90;;;;;;4936578;28;21181;-87
2021/10/02 02:59:02;;;;;;;1.80;1.70;;;15.50;99.90;;;;;;4953397;28;20475;-87
2021/10/02 03:01:31;;;;;;;4.07;1.60;;;15.60;99.90;;;;;;4953564;28;20862;-87
2021/10/02 03:04:01;;;;;;;2.40;1.73;;;15.60;99.90;;;;;;4953425;28;20459;-85
2021/10/02 03:06:30;;;;;;;1.70;1.50;;;15.50;99.90;;;;;;4953037;28;20933;-86
2021/10/02 03:08:58;;;;;;;3.30;2.60;;;15.70;99.90;;;;;;4934940;28;20446;-89
2021/10/02 03:11:27;;;;;;;3.40;2.00;;;15.70;99.90;;;;;;4939258;28;20483;-87
2021/10/02 03:13:58;;;;;;;4.03;1.90;;;15.60;99.90;;;;;;4957119;28;22322;-88
2021/10/02 03:16:28;;;;;;;2.07;1.87;;;15.70;99.90;;;;;;4937893;28;20440;-87
2021/10/02 03:19:04;;;;;;;1.80;1.70;;;15.70;99.90;;;;;;4933073;28;20494;-87
2021/10/02 03:21:32;;;;;;;2.83;2.00;;;15.60;99.90;;;;;;4956875;28;20485;-87
2021/10/02 03:23:59;;;;;;;1.80;1.70;;;15.70;99.90;;;;;;4956626;28;20738;-87
2021/10/02 03:26:26;;;;;;;2.47;1.97;;;15.70;99.90;;;;;;4955064;28;20463;-87
2021/10/02 03:28:55;;;;;;;3.00;2.10;;;15.80;99.90;;;;;;4940724;28;20455;-87
2021/10/02 03:31:22;;;;;;;1.70;1.60;;;15.70;99.90;;;;;;4934716;28;20475;-86
2021/10/02 03:33:50;;;;;;;2.23;1.70;;;15.60;99.90;;;;;;4931925;28;21958;-88
2021/10/02 03:36:17;;;;;;;2.13;1.90;;;15.70;99.90;;;;;;4936774;28;20459;-86
2021/10/02 03:38:50;;;;;;;1.90;1.57;;;15.70;99.90;;;;;;4933990;28;20553;-88
2021/10/02 03:41:18;;;;;;;2.10;1.93;;;15.60;99.90;;;;;;4937587;28;20461;-85
2021/10/02 03:43:45;;;;;;;2.27;1.73;;;15.60;99.90;;;;;;4939553;28;20573;-84
2021/10/02 03:46:13;;;;;;;2.10;1.90;;;15.60;99.90;;;;;;4932587;28;20458;-87
2021/10/02 03:48:40;;;;;;;2.63;1.93;;;15.50;99.90;;;;;;4941093;28;20534;-84
2021/10/02 03:51:07;;;;;;;1.80;1.70;;;15.50;99.90;;;;;;4957091;28;20537;-86
2021/10/02 03:53:35;;;;;;;3.20;1.60;;;15.50;99.90;;;;;;4936028;28;20514;-87
2021/10/02 03:56:04;;;;;;;1.60;1.33;;;15.50;99.90;;;;;;4941235;28;20546;-86
2021/10/02 03:58:35;;;;;;;1.70;1.60;;;15.50;99.90;;;;;;4928408;28;20462;-87
2021/10/02 04:01:06;;;;;;;2.53;1.80;;;15.50;99.90;;;;;;4952022;28;20498;-86
2021/10/02 04:03:33;;;;;;;1.73;1.63;;;15.50;99.90;;;;;;4936970;28;20452;-87
2021/10/02 04:06:00;;;;;;;2.40;2.20;;;15.50;99.90;;;;;;4928739;28;22114;-86
2021/10/02 04:08:26;;;;;;;1.33;1.23;;;15.40;99.90;;;;;;4955746;28;20456;-86
2021/10/02 04:10:55;;;;;;;2.27;1.33;;;15.40;99.90;;;;;;4955661;28;21943;-87
2021/10/02 04:13:22;;;;;;;2.50;1.50;;;15.10;99.90;;;;;;4966487;28;20526;-87
2021/10/02 04:15:49;;;;;;;1.27;1.17;;;15.00;99.90;;;;;;4970522;28;20490;-89
2021/10/02 04:18:17;;;;;;;1.53;1.43;;;15.10;99.90;;;;;;4969080;28;20451;-88
2021/10/02 04:20:44;;;;;;;1.43;1.23;;;15.00;99.90;;;;;;4951168;28;20486;-87
2021/10/02 04:23:13;;;;;;;3.40;1.50;;;15.00;99.90;;;;;;4966133;28;21680;-88
2021/10/02 04:25:45;;;;;;;1.33;1.23;;;15.10;99.90;;;;;;4969691;28;20455;-88
2021/10/02 04:28:12;;;;;;;1.90;1.70;;;15.10;99.90;;;;;;4966176;28;20475;-87
2021/10/02 04:30:39;;;;;;;1.50;1.40;;;15.30;99.90;;;;;;4998815;22;20494;-87
2021/10/02 04:33:07;;;;;;;2.90;1.60;;;15.50;99.90;;;;;;4961869;28;21995;-86
2021/10/02 04:35:35;;;;;;;2.00;1.50;;;15.50;99.90;;;;;;4956771;28;20526;-88
2021/10/02 04:38:08;;;;;;;2.13;1.67;;;15.40;99.90;;;;;;4976354;28;20452;-87
2021/10/02 04:40:48;;;;;;;1.60;1.50;;;15.30;99.90;;;;;;4972530;28;20450;-88
2021/10/02 04:43:15;;;;;;;1.63;1.10;;;15.30;99.90;;;;;;4964412;28;20474;-88
2021/10/02 04:45:45;;;;;;;2.17;1.70;;;15.40;99.90;;;;;;4976728;28;20614;-87
2021/10/02 04:48:18;;;;;;;3.40;1.70;;;15.50;99.90;;;;;;4961688;28;20549;-86
2021/10/02 04:50:45;;;;;;;1.60;1.30;;;15.40;99.90;;;;;;4952570;28;20490;-86
2021/10/02 04:53:12;;;;;;;1.60;1.50;;;15.30;99.90;;;;;;4951425;28;20451;-86
2021/10/02 04:55:42;;;;;;;2.80;1.53;;;15.40;99.90;;;;;;4966344;28;21343;-85
2021/10/02 04:58:08;;;;;;;2.00;1.80;;;15.20;99.90;;;;;;4950120;28;20443;-88
2021/10/02 05:00:35;;;;;;;2.30;2.10;;;15.20;99.90;;;;;;4953504;28;20505;-87
2021/10/02 05:03:04;;;;;;;3.40;1.60;;;15.30;99.90;;;;;;4949662;28;20470;-85
2021/10/02 05:05:31;;;;;;;1.80;1.70;;;15.30;99.90;;;;;;4952038;28;20553;-86
2021/10/02 05:07:57;;;;;;;3.10;1.70;;;15.40;99.90;;;;;;4949396;28;20582;-87
2021/10/02 05:10:24;;;;;;;3.53;2.00;;;15.60;99.90;;;;;;4946971;28;20475;-87
2021/10/02 05:12:51;;;;;;;1.67;1.50;;;15.80;99.90;;;;;;4948239;28;20499;-86
2021/10/02 05:15:18;;;;;;;1.73;1.53;;;15.80;99.90;;;;;;4949371;28;20447;-86
2021/10/02 05:17:47;;;;;;;2.33;2.00;;;15.70;99.90;;;;;;4969854;28;20454;-85
2021/10/02 05:20:14;;;;;;;2.57;1.37;;;15.90;99.90;;;;;;4936966;28;21004;-85
2021/10/02 05:22:42;;;;;;;1.77;1.67;;;15.90;99.90;;;;;;4944009;28;20451;-87
2021/10/02 05:25:11;;;;;;;1.70;1.60;;;15.90;99.90;;;;;;4950722;28;20451;-86
2021/10/02 05:27:37;;;;;;;2.23;1.60;;;15.70;99.90;;;;;;4950821;28;21160;-84
2021/10/02 05:30:05;;;;;;;3.40;1.67;;;15.80;99.90;;;;;;4954619;28;20477;-87
2021/10/02 05:32:33;;;;;;;3.07;1.60;;;15.70;99.90;;;;;;4959430;28;20515;-86
2021/10/02 05:35:02;;;;;;;3.70;1.70;;;15.70;99.90;;;;;;4952247;28;20455;-87
2021/10/02 05:37:29;;;;;;;2.85;1.60;;;15.60;99.90;;;;;;4266811;28;10000725;-88
2021/10/02 05:39:56;;;;;;;2.20;2.00;;;15.70;99.90;;;;;;4948386;28;20228;-88
2021/10/02 05:42:26;;;;;;;1.60;1.30;;;15.60;99.90;;;;;;4956211;28;20458;-86
2021/10/02 05:44:54;;;;;;;1.87;1.77;;;15.50;99.90;;;;;;4953347;28;20465;-86
2021/10/02 05:47:22;;;;;;;1.70;1.60;;;15.50;99.90;;;;;;4961588;28;20474;-89
2021/10/02 05:49:49;;;;;;;1.80;1.70;;;15.50;99.90;;;;;;4960987;28;21497;-88
2021/10/02 05:52:18;;;;;;;1.60;1.50;;;15.50;99.90;;;;;;4983097;28;20490;-87
2021/10/02 05:54:47;;;;;;;1.70;1.60;;;15.50;99.90;;;;;;4963706;28;21026;-87
2021/10/02 05:57:18;;;;;;;1.77;1.67;;;15.40;99.90;;;;;;4978978;28;20908;-89
2021/10/02 05:59:46;;;;;;;1.83;1.50;;;15.20;99.90;;;;;;4966695;28;20475;-88
2021/10/02 06:02:14;;;;;;;1.70;1.40;;;15.30;99.90;;;;;;4985499;28;20585;-88
2021/10/02 06:04:45;;;;;;;2.50;1.80;;;15.40;99.90;;;;;;4954907;28;20465;-87
2021/10/02 06:07:12;;;;;;;1.60;1.50;;;15.50;99.90;;;;;;4967195;28;20522;-88
2021/10/02 06:09:40;;;;;;;3.10;1.70;;;15.50;99.90;;;;;;4953083;28;20524;-87
2021/10/02 06:12:06;;;;;;;2.60;1.77;;;15.50;99.90;;;;;;4943725;28;20490;-87
2021/10/02 06:14:33;;;;;;;2.10;1.90;;;15.30;99.90;;;;;;4959087;28;20882;-87
2021/10/02 06:17:08;;;;;;;2.13;1.97;;;15.30;99.90;;;;;;4954812;28;20453;-88
2021/10/02 06:19:38;;;;;;;1.60;1.50;;;15.40;99.90;;;;;;4954803;28;20828;-87
2021/10/02 06:22:14;;;;;;;2.40;2.20;;;15.50;99.90;;;;;;4958094;28;20447;-88
2021/10/02 06:24:41;;;;;;;2.00;1.80;;;15.60;99.90;;;;;;4973041;28;20463;-88
2021/10/02 06:27:09;;;;;;;2.20;1.63;;;15.70;99.90;;;;;;4961382;28;20554;-86
2021/10/02 06:29:39;;;;;;;2.07;1.60;;;15.70;99.90;;;;;;4958465;28;20482;-88
2021/10/02 06:32:06;;;;;;;1.50;1.40;;;15.70;99.90;;;;;;4957683;28;20561;-86
2021/10/02 06:34:33;;;;;;;2.20;1.47;;;15.70;99.90;;;;;;4958487;28;20451;-87
2021/10/02 06:37:00;;;;;;;4.10;1.60;;;15.70;99.90;;;;;;4957262;28;20454;-85
2021/10/02 06:39:28;;;;;;;1.70;1.30;;;15.70;99.90;;;;;;4959481;28;20537;-87
2021/10/02 06:41:56;;;;;;;1.53;1.43;;;15.70;99.90;;;;;;4976122;28;20455;-88
2021/10/02 06:44:25;;;;;;;1.83;1.47;;;15.70;99.90;;;;;;4972422;28;21149;-87
2021/10/02 06:46:52;;;;;;;1.87;1.67;;;15.70;99.90;;;;;;4957829;28;22152;-87
2021/10/02 06:49:28;;;;;;;1.13;1.13;;;15.50;99.90;;;;;;4958032;28;20481;-86
2021/10/02 06:51:55;;;;;;;2.00;1.80;;;15.70;99.90;;;;;;4973857;28;20474;-86
2021/10/02 06:54:23;;;;;;;1.70;1.60;;;15.80;99.90;;;;;;4957542;28;20451;-86
2021/10/02 06:56:52;;;;;;;2.30;1.63;;;15.70;99.90;;;;;;4967179;28;20467;-86
2021/10/02 06:59:25;;;;;;;3.33;1.90;;;15.60;99.90;;;;;;4975677;28;20478;-85
2021/10/02 07:02:06;;;;;;;1.93;1.73;;;15.50;99.90;;;;;;4957225;28;20502;-88
2021/10/02 07:04:33;;;;;;;4.40;1.97;;;15.50;99.90;;;;;;4981276;28;20420;-88
2021/10/02 07:07:03;;;;;;;2.10;2.00;;;15.60;99.90;;;;;;4973958;28;20428;-86
2021/10/02 07:09:31;;;;;;;4.40;2.50;;;15.40;99.90;;;;;;4970911;28;20479;-88
2021/10/02 07:12:01;;;;;;;2.53;2.33;;;15.50;99.90;;;;;;5009878;22;20446;-90
2021/10/02 07:14:29;;;;;;;1.93;1.83;;;15.50;99.90;;;;;;5023750;28;20432;-88
2021/10/02 07:16:56;;;;;;;2.00;1.90;;;15.30;99.90;;;;;;5002121;28;20539;-87
2021/10/02 07:19:24;;;;;;;2.30;2.10;;;15.50;99.90;;;;;;4998936;28;20465;-87
2021/10/02 07:22:02;;;;;;;2.60;2.40;;;15.70;99.90;;;;;;5002264;28;20591;-86
2021/10/02 07:24:30;;;;;;;4.13;2.73;;;15.80;99.90;;;;;;4993679;28;20531;-87
2021/10/02 07:26:59;;;;;;;3.50;2.30;;;15.80;99.90;;;;;;4996864;28;21645;-87
2021/10/02 07:29:35;;;;;;;4.33;2.50;;;15.80;99.90;;;;;;4982330;28;20469;-88
2021/10/02 07:32:14;;;;;;;2.70;2.50;;;15.70;99.90;;;;;;4994554;28;20477;-87
2021/10/02 07:34:44;;;;;;;2.33;2.17;;;15.80;99.90;;;;;;4993791;28;20577;-87
2021/10/02 07:37:11;;;;;;;2.87;2.33;;;15.80;99.90;;;;;;4986870;28;20457;-86
2021/10/02 07:39:38;;;;;;;2.57;2.23;;;15.70;99.90;;;;;;5008005;28;20511;-87
2021/10/02 07:42:05;;;;;;;2.53;2.40;;;15.80;99.90;;;;;;4995880;28;20500;-89
2021/10/02 07:44:37;;;;;;;2.73;2.17;;;15.80;99.90;;;;;;5015428;28;20464;-87
2021/10/02 07:47:08;;;;;;;3.37;2.17;;;15.60;99.90;;;;;;4998718;28;20470;-87
2021/10/02 07:49:37;;;;;;;2.70;1.87;;;15.60;99.90;;;;;;5013165;28;20468;-87
2021/10/02 07:52:06;;;;;;;3.53;2.10;;;15.60;99.90;;;;;;5009209;28;20489;-86
2021/10/02 07:54:42;;;;;;;4.13;2.53;;;15.70;99.90;;;;;;5012035;28;20977;-87
2021/10/02 07:57:12;;;;;;;2.73;1.90;;;15.70;99.90;;;;;;4992183;28;20452;-87
2021/10/02 07:59:43;;;;;;;3.20;2.23;;;15.80;99.90;;;;;;5013091;28;20481;-85
2021/10/02 08:02:20;;;;;;;2.60;2.40;;;16.00;99.90;;;;;;5004408;28;20496;-88
2021/10/02 08:04:48;;;;;;;2.37;2.20;;;16.20;99.90;;;;;;4998633;28;20505;-89
2021/10/02 08:07:22;;;;;;;3.03;2.50;;;16.30;99.90;;;;;;5001585;28;20454;-87
2021/10/02 08:09:53;;;;;;;4.13;2.07;;;16.30;99.90;;;;;;5003191;28;20469;-87
2021/10/02 08:12:23;;;;;;;2.73;2.00;;;16.40;99.90;;;;;;4997511;28;20469;-86
2021/10/02 08:14:54;;;;;;;3.83;2.13;;;16.50;99.90;;;;;;4986705;28;20524;-90
2021/10/02 08:17:37;;;;;;;2.30;2.10;;;16.40;99.90;;;;;;5007232;28;20437;-87
2021/10/02 08:20:10;;;;;;;2.20;2.00;;;16.50;99.90;;;;;;5221467;22;22328;-88
2021/10/02 08:22:44;;;;;;;2.27;2.07;;;16.40;99.90;;;;;;4971137;28;21125;-88
2021/10/02 08:25:13;;;;;;;2.27;2.17;;;16.30;99.90;;;;;;4986528;28;20560;-87
2021/10/02 08:27:42;;;;;;;2.87;2.60;;;16.30;99.90;;;;;;4970085;28;20467;-86
2021/10/02 08:30:12;;;;;;;1.83;1.73;;;16.30;99.90;;;;;;4987371;28;20944;-87
2021/10/02 08:32:42;;;;;;;2.27;2.07;;;16.30;99.90;;;;;;4969687;28;20486;-87
2021/10/02 08:35:11;;;;;;;3.03;2.47;;;16.20;99.90;;;;;;4972670;28;20485;-86
2021/10/02 08:37:38;;;;;;;3.93;1.97;;;16.10;99.90;;;;;;4971527;28;21073;-88
2021/10/02 08:40:10;;;;;;;2.30;2.10;;;15.90;99.90;;;;;;4983662;28;21412;-87
2021/10/02 08:42:39;;;;;;;3.50;2.00;;;15.80;99.90;;;;;;4982535;28;20494;-86
2021/10/02 08:45:10;;;;;;;3.10;2.40;;;16.20;99.90;;;;;;4967534;28;20449;-86
2021/10/02 08:47:40;;;;;;;2.30;2.10;;;16.50;99.90;;;;;;4969015;28;20450;-85
2021/10/02 08:50:11;;;;;;;2.80;2.60;;;16.60;99.90;;;;;;4965046;28;20479;-88
2021/10/02 08:52:42;;;;;;;2.20;2.10;;;16.50;99.90;;;;;;4971321;28;20485;-88
2021/10/02 08:55:18;;;;;;;2.30;2.10;;;16.40;99.90;;;;;;4969756;28;20553;-87
2021/10/02 08:57:49;;;;;;;3.00;1.83;;;16.40;99.90;;;;;;4982004;28;20501;-89
2021/10/02 09:00:21;;;;;;;3.70;2.10;;;16.40;99.90;;;;;;4967198;28;20477;-87
2021/10/02 09:02:53;;;;;;;2.27;2.07;;;16.20;99.90;;;;;;4966992;28;20450;-87
2021/10/02 09:05:22;;;;;;;2.40;2.17;;;16.00;99.90;;;;;;4966455;28;20525;-88
2021/10/02 09:07:53;;;;;;;2.60;2.00;;;15.80;99.90;;;;;;4964155;28;21291;-89
2021/10/02 09:10:23;;;;;;;3.57;2.33;;;15.90;99.90;;;;;;4967611;28;20477;-86
2021/10/02 09:12:53;;;;;;;2.20;2.00;;;16.40;99.90;;;;;;4967626;28;20486;-87
2021/10/02 09:15:20;;;;;;;2.67;2.07;;;16.60;99.90;;;;;;4963817;28;20450;-88
2021/10/02 09:17:51;;;;;;;1.70;1.60;;;16.50;99.90;;;;;;4962263;28;20461;-86
2021/10/02 09:20:19;;;;;;;2.57;2.37;;;16.60;99.90;;;;;;4998248;28;21939;-87
2021/10/02 09:22:56;;;;;;;1.87;1.77;;;16.70;99.90;;;;;;4996760;28;20472;-86
2021/10/02 09:25:33;;;;;;;2.70;2.00;;;16.90;99.90;;;;;;4961540;28;21027;-87
2021/10/02 09:28:13;;;;;;;2.50;2.30;;;16.90;99.90;;;;;;4964147;28;20576;-85
2021/10/02 09:30:46;;;;;;;2.60;2.40;;;16.80;99.90;;;;;;4978031;28;20485;-85
2021/10/02 09:33:22;;;;;;;2.03;1.83;;;16.80;99.90;;;;;;4961814;28;20497;-87
2021/10/02 09:35:50;;;;;;;3.47;2.40;;;16.90;99.90;;;;;;4959317;28;20461;-87
2021/10/02 09:38:20;;;;;;;2.20;1.97;;;17.00;99.90;;;;;;4981952;28;20447;-86
2021/10/02 09:40:58;;;;;;;2.50;2.10;;;17.00;99.90;;;;;;4964369;28;20511;-87
2021/10/02 09:43:28;;;;;;;2.90;2.27;;;17.10;99.90;;;;;;4983943;28;20469;-87
2021/10/02 09:45:56;;;;;;;2.30;1.97;;;16.90;99.90;;;;;;4981206;28;20466;-86
2021/10/02 09:48:30;;;;;;;3.00;2.27;;;17.00;99.90;;;;;;4981225;28;20459;-87
2021/10/02 09:51:06;;;;;;;2.60;2.20;;;17.10;99.90;;;;;;4965612;28;20481;-87
2021/10/02 09:53:39;;;;;;;4.80;2.00;;;17.20;99.90;;;;;;4956970;28;20512;-85
2021/10/02 09:56:09;;;;;;;1.83;1.70;;;17.30;99.90;;;;;;4967630;28;20483;-86
2021/10/02 09:58:37;;;;;;;1.70;1.60;;;17.40;99.90;;;;;;4979410;28;20434;-86
2021/10/02 10:01:06;;;;;;;5.13;1.70;;;17.10;99.90;;;;;;4984144;28;20492;-87
2021/10/02 10:03:42;;;;;;;1.53;1.43;;;17.40;99.90;;;;;;4976473;28;20453;-87
2021/10/02 10:06:24;;;;;;;1.00;1.00;;;17.80;99.90;;;;;;4987566;28;20441;-86
2021/10/02 10:15:01;;;;;;;1.00;0.90;;;18.30;99.90;;;;;;4961871;28;20454;-86
2021/10/02 10:17:33;;;;;;;1.40;1.07;;;18.70;99.90;;;;;;4942637;28;21711;-87
2021/10/02 10:20:09;;;;;;;1.20;1.10;;;18.90;99.30;;;;;;4941418;28;21527;-85
2021/10/02 10:22:41;;;;;;;0.80;0.80;;;18.80;99.40;;;;;;4950147;28;20494;-87
2021/10/02 10:25:17;;;;;;;0.70;0.60;;;18.60;98.70;;;;;;4963537;28;20507;-86
2021/10/02 10:27:57;;;;;;;1.00;0.90;;;18.40;99.60;;;;;;4961860;28;20514;-85
2021/10/02 10:30:25;;;;;;;0.80;0.80;;;18.20;99.60;;;;;;4947014;28;20482;-86
2021/10/02 10:33:10;;;;;;;2.30;1.00;;;18.30;99.70;;;;;;4944104;28;20850;-86
2021/10/02 10:35:45;;;;;;;1.10;1.03;;;18.40;99.80;;;;;;4945387;28;20469;-85
2021/10/02 10:38:22;;;;;;;1.00;0.87;;;18.70;99.30;;;;;;4935873;28;20986;-85
2021/10/02 10:40:50;;;;;;;0.70;0.70;;;18.80;99.00;;;;;;4958184;28;20477;-85
2021/10/02 10:43:18;;;;;;;2.40;0.90;;;19.00;98.40;;;;;;4963059;28;20448;-86
2021/10/02 10:45:46;;;;;;;0.87;0.87;;;19.00;98.20;;;;;;4972204;28;20523;-89
2021/10/02 10:48:13;;;;;;;1.47;0.80;;;19.10;98.50;;;;;;4945559;28;20459;-90
2021/10/02 10:50:43;;;;;;;1.07;0.70;;;19.10;98.70;;;;;;4957345;28;20471;-86
2021/10/02 10:53:11;;;;;;;0.90;0.53;;;19.30;98.20;;;;;;4959150;28;20510;-86
2021/10/02 10:55:50;;;;;;;1.03;0.67;;;19.30;97.50;;;;;;4949897;28;20467;-87
2021/10/02 10:58:36;;;;;;;0.80;0.67;;;19.20;97.30;;;;;;4949728;28;20478;-87
2021/10/02 11:01:09;;;;;;;1.07;0.70;;;19.10;97.20;;;;;;4942207;28;20470;-86
2021/10/02 11:03:40;;;;;;;0.80;0.80;;;18.80;97.70;;;;;;4942694;28;20463;-87
2021/10/02 11:06:19;;;;;;;1.20;0.70;;;18.70;98.10;;;;;;4841196;28;20465;-87
2021/10/02 11:08:52;;;;;;;0.70;0.70;;;18.70;98.60;;;;;;4942996;28;20745;-87
2021/10/02 11:11:51;;;;;;;0.90;0.90;;;18.70;98.80;;;;;;4956739;28;20702;-87
2021/10/02 11:14:21;;;;;;;1.27;0.87;;;18.60;99.20;;;;;;4937477;28;20573;-87
2021/10/02 11:16:58;;;;;;;0.77;0.70;;;18.90;98.90;;;;;;4939198;28;21870;-89
2021/10/02 11:19:43;;;;;;;0.63;0.60;;;18.90;98.50;;;;;;4955680;28;20486;-87
2021/10/02 11:23:08;;;;;;;1.17;1.07;;;18.90;98.40;;;;;;4956863;28;20463;-87
2021/10/02 11:25:35;;;;;;;1.73;1.37;;;18.60;99.60;;;;;;4895838;29;22075;-87
2021/10/02 11:28:28;;;;;;;2.53;1.33;;;18.30;99.90;;;;;;4929320;28;20451;-87
2021/10/02 11:30:56;;;;;;;2.53;2.30;;;18.50;99.90;;;;;;4956585;28;20541;-87
2021/10/02 11:33:44;;;;;;;1.20;1.10;;;18.40;99.90;;;;;;4941051;28;20490;-86
2021/10/02 11:36:31;;;;;;;1.70;1.40;;;18.50;99.90;;;;;;4957983;28;20842;-86
2021/10/02 11:39:21;;;;;;;1.53;1.10;;;18.40;99.90;;;;;;4253656;28;10000737;-88
2021/10/02 11:41:57;;;;;;;1.33;1.00;;;18.80;99.90;;;;;;4941648;28;20215;-87
2021/10/02 11:44:33;;;;;;;2.30;1.30;;;19.10;99.90;;;;;;4955966;28;22203;-86
2021/10/02 11:47:34;;;;;;;2.63;1.67;;;19.20;99.90;;;;;;4936383;28;20492;-87
2021/10/02 11:50:07;;;;;;;1.50;1.40;;;19.40;99.70;;;;;;4939107;28;20476;-87
2021/10/02 11:52:46;;;;;;;1.33;1.00;;;19.60;99.40;;;;;;4936553;28;20521;-86
2021/10/02 11:55:41;;;;;;;1.30;1.20;;;19.60;99.40;;;;;;4941368;28;20807;-88
2021/10/02 11:58:15;;;;;;;2.53;1.43;;;19.30;99.00;;;;;;4938253;28;20493;-87
2021/10/02 12:00:48;;;;;;;1.50;1.40;;;19.10;99.00;;;;;;4955483;28;20473;-87
2021/10/02 12:03:20;;;;;;;1.40;1.30;;;18.90;99.60;;;;;;4940042;28;20566;-86
2021/10/02 12:05:48;;;;;;;1.43;1.17;;;18.80;99.90;;;;;;4959767;28;20459;-86
2021/10/02 12:08:17;;;;;;;1.27;1.20;;;18.80;99.90;;;;;;4947168;28;20459;-88
2021/10/02 12:11:05;;;;;;;2.33;1.27;;;18.80;99.90;;;;;;4947021;28;20487;-86
2021/10/02 12:13:34;;;;;;;1.27;1.20;;;18.80;99.60;;;;;;4953517;28;20481;-87
2021/10/02 12:16:08;;;;;;;1.23;1.10;;;18.90;99.50;;;;;;4940643;28;20937;-86
2021/10/02 12:18:55;;;;;;;2.20;1.27;;;19.00;99.30;;;;;;4934273;28;20478;-87
2021/10/02 12:21:26;;;;;;;1.50;1.40;;;19.10;99.40;;;;;;4958196;28;21432;-86
2021/10/02 12:24:11;;;;;;;1.80;1.40;;;19.40;98.90;;;;;;4941677;28;20463;-87
2021/10/02 12:26:45;;;;;;;1.17;1.13;;;19.70;98.40;;;;;;4961044;28;20451;-86
2021/10/02 12:29:15;;;;;;;1.23;1.20;;;20.00;97.70;;;;;;4950006;28;20489;-87
2021/10/02 12:32:03;;;;;;;2.60;1.20;;;20.10;96.80;;;;;;4969062;28;21762;-86
2021/10/02 12:34:48;;;;;;;1.43;1.20;;;20.00;96.20;;;;;;4957093;28;20482;-88
2021/10/02 12:37:34;;;;;;;1.03;1.03;;;20.00;96.00;;;;;;4933728;28;20498;-87
2021/10/02 12:40:07;;;;;;;1.97;1.47;;;19.70;96.00;;;;;;4957631;28;20468;-87
2021/10/02 12:45:38;;;;;;;1.20;1.10;;;19.70;97.10;;;;;;4962137;28;20439;-86
2021/10/02 12:48:14;;;;;;;1.10;1.00;;;19.30;97.80;;;;;;4941681;28;20466;-87
2021/10/02 12:50:43;;;;;;;1.17;1.10;;;19.30;97.50;;;;;;4964475;28;20481;-86
2021/10/02 12:53:13;;;;;;;1.30;1.20;;;19.30;97.80;;;;;;4953028;28;20478;-87
2021/10/02 12:55:42;;;;;;;1.47;1.37;;;19.20;97.60;;;;;;4956496;28;20450;-85
2021/10/02 12:58:14;;;;;;;1.47;1.13;;;19.10;97.10;;;;;;4946107;28;21080;-86
2021/10/02 13:00:41;;;;;;;1.03;1.00;;;19.30;97.20;;;;;;4946084;28;20469;-86
2021/10/02 13:03:15;;;;;;;2.40;1.87;;;19.40;96.60;;;;;;4967407;28;20482;-85
2021/10/02 13:06:06;;;;;;;1.00;1.00;;;19.60;96.00;;;;;;4946550;28;20495;-86
2021/10/02 13:08:35;;;;;;;1.30;1.20;;;19.60;95.80;;;;;;4958471;28;20463;-87
2021/10/02 13:11:06;;;;;;;1.20;1.10;;;19.60;95.70;;;;;;4959792;28;20513;-86
2021/10/02 13:13:38;;;;;;;1.60;1.23;;;19.80;95.60;;;;;;4977309;28;20479;-86
2021/10/02 13:16:05;;;;;;;1.53;1.43;;;19.80;95.60;;;;;;4979568;28;20584;-87
2021/10/02 13:18:32;;;;;;;1.33;1.23;;;19.60;95.60;;;;;;4950177;28;20462;-85
2021/10/02 13:21:04;;;;;;;2.90;1.20;;;19.60;95.40;;;;;;4963278;28;20475;-86
2021/10/02 13:23:42;;;;;;;1.60;1.50;;;19.50;95.60;;;;;;4960685;28;20457;-87
2021/10/02 13:26:18;;;;;;;1.37;1.27;;;19.50;94.50;;;;;;4941895;28;20534;-86
2021/10/02 13:28:53;;;;;;;2.57;1.33;;;19.60;93.40;;;;;;4961263;28;20441;-87
2021/10/02 13:31:23;;;;;;;2.03;1.60;;;19.90;92.60;;;;;;4966332;28;20438;-87
2021/10/02 13:33:58;;;;;;;2.70;1.20;;;20.00;92.30;;;;;;4963654;28;20498;-86
2021/10/02 13:36:32;;;;;;;2.47;1.80;;;20.20;92.10;;;;;;4929727;28;20455;-88
2021/10/02 13:39:18;;;;;;;1.37;1.27;;;20.30;91.50;;;;;;4946202;28;21000;-85
2021/10/02 13:41:50;;;;;;;1.47;1.20;;;19.90;91.40;;;;;;4946962;28;20526;-86
2021/10/02 13:44:26;;;;;;;3.20;1.47;;;19.80;92.00;;;;;;4944201;28;20563;-84
2021/10/02 13:47:00;;;;;;;1.33;1.23;;;19.80;92.20;;;;;;4964268;28;20446;-85
2021/10/02 13:49:27;;;;;;;1.27;1.17;;;19.90;92.00;;;;;;4960126;28;20477;-86
2021/10/02 13:52:00;;;;;;;1.70;1.33;;;20.00;91.80;;;;;;4959940;28;20459;-87
2021/10/02 13:54:30;;;;;;;1.50;1.37;;;20.00;91.50;;;;;;4944709;28;20479;-86
2021/10/02 13:57:05;;;;;;;1.20;1.10;;;19.70;92.20;;;;;;4964094;28;20455;-86
2021/10/02 13:59:37;;;;;;;1.37;1.23;;;19.70;92.60;;;;;;4946531;28;20505;-85
2021/10/02 14:02:05;;;;;;;1.30;1.23;;;19.90;92.60;;;;;;4958583;28;20463;-88
2021/10/02 14:04:35;;;;;;;1.20;1.10;;;19.70;92.30;;;;;;4941649;28;20555;-87
2021/10/02 14:07:04;;;;;;;1.50;1.30;;;19.70;92.10;;;;;;4941309;28;20463;-87
2021/10/02 14:09:31;;;;;;;1.63;1.30;;;19.70;91.60;;;;;;4945344;28;20495;-86
2021/10/02 14:11:58;;;;;;;1.70;1.00;;;19.60;91.50;;;;;;4961518;28;20463;-86
2021/10/02 14:14:28;;;;;;;1.47;1.20;;;19.60;91.20;;;;;;4946698;28;20491;-86
2021/10/02 14:16:57;;;;;;;1.10;1.00;;;19.50;91.80;;;;;;4962148;28;20455;-89